sensor_id;sensor_type;location;lat;lon;timestamp;P1;durP1;ratioP1;P2;durP2;ratioP2
79373;SDS011;68844;53.128;17.958;2023-09-12T00:00:05;9.20;;;7.50;;
79373;SDS011;68844;53.128;17.958;2023-09-12T00:02:58;9.10;;;7.30;;
79373;SDS011;68844;53.128;17.958;2023-09-12T00:05:25;9.90;;;8.10;;
79373;SDS011;68844;53.128;17.958;2023-09-12T00:07:52;9.70;;;7.10;;
79373;SDS011;68844;53.128;17.958;2023-09-12T00:10:20;8.10;;;7.00;;
79373;SDS011;68844;53.128;17.958;2023-09-12T00:12:46;9.60;;;7.60;;
79373;SDS011;68844;53.128;17.958;2023-09-12T00:15:13;12.10;;;7.70;;
79373;SDS011;68844;53.128;17.958;2023-09-12T00:17:40;8.60;;;7.80;;
79373;SDS011;68844;53.128;17.958;2023-09-12T00:20:07;10.90;;;8.30;;
79373;SDS011;68844;53.128;17.958;2023-09-12T00:22:37;8.80;;;7.10;;
79373;SDS011;68844;53.128;17.958;2023-09-12T00:25:03;10.30;;;7.70;;
79373;SDS011;68844;53.128;17.958;2023-09-12T00:27:30;8.40;;;7.30;;
79373;SDS011;68844;53.128;17.958;2023-09-12T00:29:57;8.50;;;7.60;;
79373;SDS011;68844;53.128;17.958;2023-09-12T00:32:23;9.70;;;7.10;;
79373;SDS011;68844;53.128;17.958;2023-09-12T00:34:50;7.90;;;7.10;;
79373;SDS011;68844;53.128;17.958;2023-09-12T00:37:17;9.10;;;7.70;;
79373;SDS011;68844;53.128;17.958;2023-09-12T00:39:43;9.40;;;7.50;;
79373;SDS011;68844;53.128;17.958;2023-09-12T00:42:10;8.40;;;7.30;;
79373;SDS011;68844;53.128;17.958;2023-09-12T00:44:36;8.90;;;7.60;;
79373;SDS011;68844;53.128;17.958;2023-09-12T00:47:03;9.00;;;7.60;;
79373;SDS011;68844;53.128;17.958;2023-09-12T00:49:30;8.60;;;7.40;;
79373;SDS011;68844;53.128;17.958;2023-09-12T00:51:58;8.60;;;7.50;;
79373;SDS011;68844;53.128;17.958;2023-09-12T00:54:25;8.00;;;7.00;;
79373;SDS011;68844;53.128;17.958;2023-09-12T00:56:52;8.50;;;7.60;;
79373;SDS011;68844;53.128;17.958;2023-09-12T00:59:19;11.30;;;7.80;;
79373;SDS011;68844;53.128;17.958;2023-09-12T01:01:47;12.00;;;6.70;;
79373;SDS011;68844;53.128;17.958;2023-09-12T01:04:15;8.50;;;6.80;;
79373;SDS011;68844;53.128;17.958;2023-09-12T01:06:42;8.00;;;6.70;;
79373;SDS011;68844;53.128;17.958;2023-09-12T01:09:09;9.90;;;7.40;;
79373;SDS011;68844;53.128;17.958;2023-09-12T01:11:39;8.10;;;7.00;;
79373;SDS011;68844;53.128;17.958;2023-09-12T01:14:07;8.60;;;7.60;;
79373;SDS011;68844;53.128;17.958;2023-09-12T01:16:33;8.40;;;7.40;;
79373;SDS011;68844;53.128;17.958;2023-09-12T01:19:00;8.20;;;7.20;;
79373;SDS011;68844;53.128;17.958;2023-09-12T01:21:38;8.20;;;6.90;;
79373;SDS011;68844;53.128;17.958;2023-09-12T01:28:09;8.40;;;7.30;;
79373;SDS011;68844;53.128;17.958;2023-09-12T01:30:18;10.50;;;8.00;;
79373;SDS011;68844;53.128;17.958;2023-09-12T01:32:47;8.20;;;7.40;;
79373;SDS011;68844;53.128;17.958;2023-09-12T01:35:15;10.50;;;7.50;;
79373;SDS011;68844;53.128;17.958;2023-09-12T01:37:41;8.00;;;6.70;;
79373;SDS011;68844;53.128;17.958;2023-09-12T01:40:08;8.20;;;7.40;;
79373;SDS011;68844;53.128;17.958;2023-09-12T01:42:37;9.30;;;7.80;;
79373;SDS011;68844;53.128;17.958;2023-09-12T01:45:08;8.40;;;6.90;;
79373;SDS011;68844;53.128;17.958;2023-09-12T01:47:37;8.40;;;7.50;;
79373;SDS011;68844;53.128;17.958;2023-09-12T01:50:07;9.80;;;7.70;;
79373;SDS011;68844;53.128;17.958;2023-09-12T01:52:35;8.30;;;7.10;;
79373;SDS011;68844;53.128;17.958;2023-09-12T01:55:02;8.40;;;7.40;;
79373;SDS011;68844;53.128;17.958;2023-09-12T01:59:57;7.80;;;7.00;;
79373;SDS011;68844;53.128;17.958;2023-09-12T02:02:24;8.60;;;6.60;;
79373;SDS011;68844;53.128;17.958;2023-09-12T02:05:13;8.20;;;7.30;;
79373;SDS011;68844;53.128;17.958;2023-09-12T02:07:45;11.90;;;7.90;;
79373;SDS011;68844;53.128;17.958;2023-09-12T02:10:12;9.10;;;8.00;;
79373;SDS011;68844;53.128;17.958;2023-09-12T02:12:40;9.50;;;8.10;;
79373;SDS011;68844;53.128;17.958;2023-09-12T02:15:07;8.40;;;7.00;;
79373;SDS011;68844;53.128;17.958;2023-09-12T02:17:34;9.70;;;7.30;;
79373;SDS011;68844;53.128;17.958;2023-09-12T02:20:01;9.80;;;7.80;;
79373;SDS011;68844;53.128;17.958;2023-09-12T02:22:32;10.00;;;7.60;;
79373;SDS011;68844;53.128;17.958;2023-09-12T02:24:58;9.00;;;7.70;;
79373;SDS011;68844;53.128;17.958;2023-09-12T02:27:25;9.90;;;8.50;;
79373;SDS011;68844;53.128;17.958;2023-09-12T02:29:52;9.10;;;7.80;;
79373;SDS011;68844;53.128;17.958;2023-09-12T02:32:18;9.10;;;8.20;;
79373;SDS011;68844;53.128;17.958;2023-09-12T02:34:45;9.30;;;7.90;;
79373;SDS011;68844;53.128;17.958;2023-09-12T02:37:11;10.90;;;8.20;;
79373;SDS011;68844;53.128;17.958;2023-09-12T02:39:38;8.10;;;7.20;;
79373;SDS011;68844;53.128;17.958;2023-09-12T02:42:05;8.40;;;7.30;;
79373;SDS011;68844;53.128;17.958;2023-09-12T02:44:31;8.70;;;7.60;;
79373;SDS011;68844;53.128;17.958;2023-09-12T02:46:58;10.10;;;7.30;;
79373;SDS011;68844;53.128;17.958;2023-09-12T02:49:24;9.90;;;8.60;;
79373;SDS011;68844;53.128;17.958;2023-09-12T02:51:51;9.40;;;7.50;;
79373;SDS011;68844;53.128;17.958;2023-09-12T02:54:18;11.40;;;7.80;;
79373;SDS011;68844;53.128;17.958;2023-09-12T02:56:44;8.50;;;7.20;;
79373;SDS011;68844;53.128;17.958;2023-09-12T02:59:11;8.70;;;7.40;;
79373;SDS011;68844;53.128;17.958;2023-09-12T03:01:37;8.90;;;7.80;;
79373;SDS011;68844;53.128;17.958;2023-09-12T03:04:04;9.90;;;8.20;;
79373;SDS011;68844;53.128;17.958;2023-09-12T03:06:30;8.80;;;7.50;;
79373;SDS011;68844;53.128;17.958;2023-09-12T03:08:57;11.80;;;8.60;;
79373;SDS011;68844;53.128;17.958;2023-09-12T03:11:27;9.10;;;7.70;;
79373;SDS011;68844;53.128;17.958;2023-09-12T03:13:54;9.20;;;7.50;;
79373;SDS011;68844;53.128;17.958;2023-09-12T03:16:21;9.60;;;8.00;;
79373;SDS011;68844;53.128;17.958;2023-09-12T03:18:50;9.20;;;7.60;;
79373;SDS011;68844;53.128;17.958;2023-09-12T03:21:17;10.00;;;8.20;;
79373;SDS011;68844;53.128;17.958;2023-09-12T03:23:44;9.40;;;7.90;;
79373;SDS011;68844;53.128;17.958;2023-09-12T03:26:11;8.90;;;8.00;;
79373;SDS011;68844;53.128;17.958;2023-09-12T03:28:38;8.90;;;7.50;;
79373;SDS011;68844;53.128;17.958;2023-09-12T03:31:06;10.00;;;7.40;;
79373;SDS011;68844;53.128;17.958;2023-09-12T03:33:38;9.10;;;7.90;;
79373;SDS011;68844;53.128;17.958;2023-09-12T03:36:05;8.80;;;7.90;;
79373;SDS011;68844;53.128;17.958;2023-09-12T03:38:33;11.40;;;8.10;;
79373;SDS011;68844;53.128;17.958;2023-09-12T03:41:01;8.30;;;7.20;;
79373;SDS011;68844;53.128;17.958;2023-09-12T03:43:28;8.30;;;7.20;;
79373;SDS011;68844;53.128;17.958;2023-09-12T03:45:55;10.20;;;7.00;;
79373;SDS011;68844;53.128;17.958;2023-09-12T03:48:22;9.90;;;7.90;;
79373;SDS011;68844;53.128;17.958;2023-09-12T03:50:48;8.10;;;7.20;;
79373;SDS011;68844;53.128;17.958;2023-09-12T03:53:15;9.10;;;8.10;;
79373;SDS011;68844;53.128;17.958;2023-09-12T03:55:42;8.80;;;7.70;;
79373;SDS011;68844;53.128;17.958;2023-09-12T03:58:09;11.10;;;7.90;;
79373;SDS011;68844;53.128;17.958;2023-09-12T04:00:36;8.90;;;7.60;;
79373;SDS011;68844;53.128;17.958;2023-09-12T04:03:03;9.70;;;8.00;;
79373;SDS011;68844;53.128;17.958;2023-09-12T04:05:30;11.30;;;8.20;;
79373;SDS011;68844;53.128;17.958;2023-09-12T04:07:57;8.10;;;7.20;;
79373;SDS011;68844;53.128;17.958;2023-09-12T04:10:24;10.00;;;7.80;;
79373;SDS011;68844;53.128;17.958;2023-09-12T04:12:50;11.20;;;7.50;;
79373;SDS011;68844;53.128;17.958;2023-09-12T04:15:17;9.90;;;7.90;;
79373;SDS011;68844;53.128;17.958;2023-09-12T04:17:44;8.70;;;7.80;;
79373;SDS011;68844;53.128;17.958;2023-09-12T04:20:10;9.40;;;7.00;;
79373;SDS011;68844;53.128;17.958;2023-09-12T04:22:43;9.00;;;8.10;;
79373;SDS011;68844;53.128;17.958;2023-09-12T04:25:10;10.70;;;7.10;;
79373;SDS011;68844;53.128;17.958;2023-09-12T04:27:36;9.50;;;8.10;;
79373;SDS011;68844;53.128;17.958;2023-09-12T04:30:04;8.60;;;7.80;;
79373;SDS011;68844;53.128;17.958;2023-09-12T04:32:31;8.90;;;7.00;;
79373;SDS011;68844;53.128;17.958;2023-09-12T04:34:58;10.20;;;8.20;;
79373;SDS011;68844;53.128;17.958;2023-09-12T04:37:26;9.30;;;7.60;;
79373;SDS011;68844;53.128;17.958;2023-09-12T04:39:53;10.70;;;7.70;;
79373;SDS011;68844;53.128;17.958;2023-09-12T04:42:21;9.70;;;7.40;;
79373;SDS011;68844;53.128;17.958;2023-09-12T04:44:47;9.00;;;7.70;;
79373;SDS011;68844;53.128;17.958;2023-09-12T04:47:15;8.70;;;7.50;;
79373;SDS011;68844;53.128;17.958;2023-09-12T04:49:42;8.70;;;7.50;;
79373;SDS011;68844;53.128;17.958;2023-09-12T04:52:10;7.80;;;6.90;;
79373;SDS011;68844;53.128;17.958;2023-09-12T04:54:36;10.00;;;7.30;;
79373;SDS011;68844;53.128;17.958;2023-09-12T04:57:03;8.00;;;7.20;;
79373;SDS011;68844;53.128;17.958;2023-09-12T04:59:30;9.60;;;7.00;;
79373;SDS011;68844;53.128;17.958;2023-09-12T05:01:57;8.40;;;7.20;;
79373;SDS011;68844;53.128;17.958;2023-09-12T05:04:23;11.10;;;7.90;;
79373;SDS011;68844;53.128;17.958;2023-09-12T05:06:50;9.40;;;6.90;;
79373;SDS011;68844;53.128;17.958;2023-09-12T05:09:16;8.10;;;6.50;;
79373;SDS011;68844;53.128;17.958;2023-09-12T05:11:43;8.30;;;7.50;;
79373;SDS011;68844;53.128;17.958;2023-09-12T05:14:12;9.80;;;7.20;;
79373;SDS011;68844;53.128;17.958;2023-09-12T05:16:38;7.90;;;7.10;;
79373;SDS011;68844;53.128;17.958;2023-09-12T05:19:05;11.70;;;7.80;;
79373;SDS011;68844;53.128;17.958;2023-09-12T05:21:32;7.70;;;6.70;;
79373;SDS011;68844;53.128;17.958;2023-09-12T05:23:59;8.20;;;6.90;;
79373;SDS011;68844;53.128;17.958;2023-09-12T05:26:26;10.80;;;7.60;;
79373;SDS011;68844;53.128;17.958;2023-09-12T05:28:53;9.70;;;7.40;;
79373;SDS011;68844;53.128;17.958;2023-09-12T05:31:20;13.20;;;7.80;;
79373;SDS011;68844;53.128;17.958;2023-09-12T05:33:46;11.00;;;6.70;;
79373;SDS011;68844;53.128;17.958;2023-09-12T05:36:13;15.40;;;7.30;;
79373;SDS011;68844;53.128;17.958;2023-09-12T05:38:40;12.00;;;7.60;;
79373;SDS011;68844;53.128;17.958;2023-09-12T05:41:06;11.30;;;7.80;;
79373;SDS011;68844;53.128;17.958;2023-09-12T05:43:33;10.90;;;6.90;;
79373;SDS011;68844;53.128;17.958;2023-09-12T05:46:00;12.50;;;7.50;;
79373;SDS011;68844;53.128;17.958;2023-09-12T05:48:28;11.00;;;6.90;;
79373;SDS011;68844;53.128;17.958;2023-09-12T05:50:55;10.10;;;6.60;;
79373;SDS011;68844;53.128;17.958;2023-09-12T05:53:22;11.70;;;7.40;;
79373;SDS011;68844;53.128;17.958;2023-09-12T05:55:48;10.80;;;6.80;;
79373;SDS011;68844;53.128;17.958;2023-09-12T05:58:15;11.70;;;7.90;;
79373;SDS011;68844;53.128;17.958;2023-09-12T06:00:42;9.20;;;6.60;;
79373;SDS011;68844;53.128;17.958;2023-09-12T06:03:09;9.70;;;7.50;;
79373;SDS011;68844;53.128;17.958;2023-09-12T06:05:35;11.70;;;7.20;;
79373;SDS011;68844;53.128;17.958;2023-09-12T06:08:02;9.00;;;8.10;;
79373;SDS011;68844;53.128;17.958;2023-09-12T06:10:31;9.90;;;7.90;;
79373;SDS011;68844;53.128;17.958;2023-09-12T06:12:57;9.80;;;7.70;;
79373;SDS011;68844;53.128;17.958;2023-09-12T06:15:24;10.00;;;7.20;;
79373;SDS011;68844;53.128;17.958;2023-09-12T06:17:51;9.90;;;7.90;;
79373;SDS011;68844;53.128;17.958;2023-09-12T06:20:17;13.60;;;8.10;;
79373;SDS011;68844;53.128;17.958;2023-09-12T06:22:44;13.00;;;8.60;;
79373;SDS011;68844;53.128;17.958;2023-09-12T06:25:11;11.00;;;7.30;;
79373;SDS011;68844;53.128;17.958;2023-09-12T06:27:37;9.40;;;7.50;;
79373;SDS011;68844;53.128;17.958;2023-09-12T06:30:04;11.10;;;7.80;;
79373;SDS011;68844;53.128;17.958;2023-09-12T06:32:32;10.20;;;7.20;;
79373;SDS011;68844;53.128;17.958;2023-09-12T06:34:58;9.00;;;7.10;;
79373;SDS011;68844;53.128;17.958;2023-09-12T06:37:25;10.10;;;7.10;;
79373;SDS011;68844;53.128;17.958;2023-09-12T06:39:51;11.60;;;7.20;;
79373;SDS011;68844;53.128;17.958;2023-09-12T06:42:18;8.40;;;6.50;;
79373;SDS011;68844;53.128;17.958;2023-09-12T06:44:46;12.00;;;7.80;;
79373;SDS011;68844;53.128;17.958;2023-09-12T06:47:12;13.50;;;8.40;;
79373;SDS011;68844;53.128;17.958;2023-09-12T06:49:39;10.70;;;8.00;;
79373;SDS011;68844;53.128;17.958;2023-09-12T06:52:06;10.00;;;7.70;;
79373;SDS011;68844;53.128;17.958;2023-09-12T06:54:33;10.00;;;7.30;;
79373;SDS011;68844;53.128;17.958;2023-09-12T06:56:59;9.50;;;7.70;;
79373;SDS011;68844;53.128;17.958;2023-09-12T06:59:26;11.10;;;7.50;;
79373;SDS011;68844;53.128;17.958;2023-09-12T07:01:53;11.60;;;8.00;;
79373;SDS011;68844;53.128;17.958;2023-09-12T07:04:19;8.40;;;7.60;;
79373;SDS011;68844;53.128;17.958;2023-09-12T07:06:46;8.10;;;7.20;;
79373;SDS011;68844;53.128;17.958;2023-09-12T07:09:12;10.40;;;7.60;;
79373;SDS011;68844;53.128;17.958;2023-09-12T07:11:41;14.40;;;8.50;;
79373;SDS011;68844;53.128;17.958;2023-09-12T07:14:08;11.20;;;8.10;;
79373;SDS011;68844;53.128;17.958;2023-09-12T07:16:36;9.30;;;8.30;;
79373;SDS011;68844;53.128;17.958;2023-09-12T07:19:03;17.30;;;9.20;;
79373;SDS011;68844;53.128;17.958;2023-09-12T07:21:30;16.10;;;8.90;;
79373;SDS011;68844;53.128;17.958;2023-09-12T07:23:58;11.20;;;7.70;;
79373;SDS011;68844;53.128;17.958;2023-09-12T07:26:24;11.40;;;7.90;;
79373;SDS011;68844;53.128;17.958;2023-09-12T07:28:51;7.70;;;7.00;;
79373;SDS011;68844;53.128;17.958;2023-09-12T07:31:17;9.50;;;7.50;;
79373;SDS011;68844;53.128;17.958;2023-09-12T07:33:44;9.70;;;7.90;;
79373;SDS011;68844;53.128;17.958;2023-09-12T07:36:11;9.40;;;7.40;;
79373;SDS011;68844;53.128;17.958;2023-09-12T07:38:38;8.60;;;7.60;;
79373;SDS011;68844;53.128;17.958;2023-09-12T07:41:05;9.00;;;6.90;;
79373;SDS011;68844;53.128;17.958;2023-09-12T07:43:31;8.00;;;7.30;;
79373;SDS011;68844;53.128;17.958;2023-09-12T07:45:58;8.30;;;7.10;;
79373;SDS011;68844;53.128;17.958;2023-09-12T07:48:25;8.40;;;7.60;;
79373;SDS011;68844;53.128;17.958;2023-09-12T07:50:51;7.40;;;6.70;;
79373;SDS011;68844;53.128;17.958;2023-09-12T07:53:18;6.70;;;6.10;;
79373;SDS011;68844;53.128;17.958;2023-09-12T07:55:45;6.80;;;6.30;;
79373;SDS011;68844;53.128;17.958;2023-09-12T07:58:16;7.20;;;6.60;;
79373;SDS011;68844;53.128;17.958;2023-09-12T08:00:48;6.40;;;5.80;;
79373;SDS011;68844;53.128;17.958;2023-09-12T08:03:14;5.70;;;5.10;;
79373;SDS011;68844;53.128;17.958;2023-09-12T08:05:44;6.90;;;5.60;;
79373;SDS011;68844;53.128;17.958;2023-09-12T08:08:21;5.70;;;4.90;;
79373;SDS011;68844;53.128;17.958;2023-09-12T08:10:47;5.00;;;4.50;;
79373;SDS011;68844;53.128;17.958;2023-09-12T08:13:14;4.30;;;3.90;;
79373;SDS011;68844;53.128;17.958;2023-09-12T08:15:40;6.10;;;3.90;;
79373;SDS011;68844;53.128;17.958;2023-09-12T08:18:07;5.20;;;3.70;;
79373;SDS011;68844;53.128;17.958;2023-09-12T08:20:33;4.60;;;3.60;;
79373;SDS011;68844;53.128;17.958;2023-09-12T08:23:00;4.50;;;3.80;;
79373;SDS011;68844;53.128;17.958;2023-09-12T08:25:27;4.40;;;3.60;;
79373;SDS011;68844;53.128;17.958;2023-09-12T08:27:53;3.90;;;3.50;;
79373;SDS011;68844;53.128;17.958;2023-09-12T08:30:20;4.70;;;3.70;;
79373;SDS011;68844;53.128;17.958;2023-09-12T08:32:46;3.20;;;2.90;;
79373;SDS011;68844;53.128;17.958;2023-09-12T08:35:13;3.70;;;3.40;;
79373;SDS011;68844;53.128;17.958;2023-09-12T08:37:40;4.50;;;2.90;;
79373;SDS011;68844;53.128;17.958;2023-09-12T08:40:08;6.00;;;3.40;;
79373;SDS011;68844;53.128;17.958;2023-09-12T08:42:38;3.90;;;3.40;;
79373;SDS011;68844;53.128;17.958;2023-09-12T08:45:13;3.50;;;3.20;;
79373;SDS011;68844;53.128;17.958;2023-09-12T08:47:44;3.50;;;2.90;;
79373;SDS011;68844;53.128;17.958;2023-09-12T08:50:13;5.10;;;3.30;;
79373;SDS011;68844;53.128;17.958;2023-09-12T08:52:42;4.10;;;3.20;;
79373;SDS011;68844;53.128;17.958;2023-09-12T08:55:10;4.70;;;3.40;;
79373;SDS011;68844;53.128;17.958;2023-09-12T08:57:38;3.90;;;3.30;;
79373;SDS011;68844;53.128;17.958;2023-09-12T09:00:06;5.40;;;3.20;;
79373;SDS011;68844;53.128;17.958;2023-09-12T09:02:36;4.10;;;3.40;;
79373;SDS011;68844;53.128;17.958;2023-09-12T09:05:05;4.80;;;3.30;;
79373;SDS011;68844;53.128;17.958;2023-09-12T09:07:37;4.10;;;3.50;;
79373;SDS011;68844;53.128;17.958;2023-09-12T09:10:05;3.90;;;3.20;;
79373;SDS011;68844;53.128;17.958;2023-09-12T09:12:34;4.00;;;3.30;;
79373;SDS011;68844;53.128;17.958;2023-09-12T09:17:51;3.90;;;3.60;;
79373;SDS011;68844;53.128;17.958;2023-09-12T09:22:56;3.50;;;3.20;;
79373;SDS011;68844;53.128;17.958;2023-09-12T09:25:24;4.50;;;3.00;;
79373;SDS011;68844;53.128;17.958;2023-09-12T09:27:51;4.60;;;2.60;;
79373;SDS011;68844;53.128;17.958;2023-09-12T09:30:17;3.40;;;3.00;;
79373;SDS011;68844;53.128;17.958;2023-09-12T09:32:45;2.90;;;2.70;;
79373;SDS011;68844;53.128;17.958;2023-09-12T09:35:13;3.40;;;3.10;;
79373;SDS011;68844;53.128;17.958;2023-09-12T09:37:40;3.00;;;2.20;;
79373;SDS011;68844;53.128;17.958;2023-09-12T09:40:09;4.10;;;3.40;;
79373;SDS011;68844;53.128;17.958;2023-09-12T09:42:37;3.30;;;3.00;;
79373;SDS011;68844;53.128;17.958;2023-09-12T09:45:04;2.80;;;2.60;;
79373;SDS011;68844;53.128;17.958;2023-09-12T09:47:31;5.10;;;3.20;;
79373;SDS011;68844;53.128;17.958;2023-09-12T09:49:58;3.70;;;2.80;;
79373;SDS011;68844;53.128;17.958;2023-09-12T09:52:26;4.10;;;3.00;;
79373;SDS011;68844;53.128;17.958;2023-09-12T09:54:55;4.60;;;3.00;;
79373;SDS011;68844;53.128;17.958;2023-09-12T09:57:25;3.10;;;2.80;;
79373;SDS011;68844;53.128;17.958;2023-09-12T09:59:52;2.90;;;2.70;;
79373;SDS011;68844;53.128;17.958;2023-09-12T10:02:19;3.10;;;2.80;;
79373;SDS011;68844;53.128;17.958;2023-09-12T10:04:49;7.20;;;3.10;;
79373;SDS011;68844;53.128;17.958;2023-09-12T10:07:19;3.40;;;2.90;;
79373;SDS011;68844;53.128;17.958;2023-09-12T10:09:47;3.30;;;3.00;;
79373;SDS011;68844;53.128;17.958;2023-09-12T10:12:14;3.00;;;2.50;;
79373;SDS011;68844;53.128;17.958;2023-09-12T10:14:41;2.60;;;2.40;;
79373;SDS011;68844;53.128;17.958;2023-09-12T10:17:11;3.90;;;3.30;;
79373;SDS011;68844;53.128;17.958;2023-09-12T10:19:41;3.40;;;3.00;;
79373;SDS011;68844;53.128;17.958;2023-09-12T10:22:17;3.60;;;3.30;;
79373;SDS011;68844;53.128;17.958;2023-09-12T10:24:49;3.30;;;2.80;;
79373;SDS011;68844;53.128;17.958;2023-09-12T10:27:18;3.80;;;3.30;;
79373;SDS011;68844;53.128;17.958;2023-09-12T10:29:45;6.30;;;3.20;;
79373;SDS011;68844;53.128;17.958;2023-09-12T10:32:14;4.30;;;3.20;;
79373;SDS011;68844;53.128;17.958;2023-09-12T10:34:41;4.30;;;3.10;;
79373;SDS011;68844;53.128;17.958;2023-09-12T10:37:11;4.00;;;3.20;;
79373;SDS011;68844;53.128;17.958;2023-09-12T10:39:42;3.60;;;3.30;;
79373;SDS011;68844;53.128;17.958;2023-09-12T10:42:09;3.50;;;3.10;;
79373;SDS011;68844;53.128;17.958;2023-09-12T10:44:38;4.80;;;3.20;;
79373;SDS011;68844;53.128;17.958;2023-09-12T10:47:05;4.40;;;3.30;;
79373;SDS011;68844;53.128;17.958;2023-09-12T10:49:33;3.80;;;3.20;;
79373;SDS011;68844;53.128;17.958;2023-09-12T10:51:59;4.40;;;3.20;;
79373;SDS011;68844;53.128;17.958;2023-09-12T10:57:06;3.40;;;3.10;;
79373;SDS011;68844;53.128;17.958;2023-09-12T11:00:07;3.70;;;3.30;;
79373;SDS011;68844;53.128;17.958;2023-09-12T11:02:34;3.50;;;3.20;;
79373;SDS011;68844;53.128;17.958;2023-09-12T11:05:03;4.00;;;3.40;;
79373;SDS011;68844;53.128;17.958;2023-09-12T11:10:22;3.40;;;2.60;;
79373;SDS011;68844;53.128;17.958;2023-09-12T11:12:51;3.90;;;3.50;;
79373;SDS011;68844;53.128;17.958;2023-09-12T11:15:19;3.80;;;3.40;;
79373;SDS011;68844;53.128;17.958;2023-09-12T11:17:49;4.80;;;3.20;;
79373;SDS011;68844;53.128;17.958;2023-09-12T11:20:25;5.10;;;3.40;;
79373;SDS011;68844;53.128;17.958;2023-09-12T11:22:52;4.60;;;3.20;;
79373;SDS011;68844;53.128;17.958;2023-09-12T11:25:21;3.90;;;3.40;;
79373;SDS011;68844;53.128;17.958;2023-09-12T11:30:20;3.50;;;3.20;;
79373;SDS011;68844;53.128;17.958;2023-09-12T11:32:49;3.90;;;3.40;;
79373;SDS011;68844;53.128;17.958;2023-09-12T11:35:22;3.60;;;3.30;;
79373;SDS011;68844;53.128;17.958;2023-09-12T11:37:50;3.20;;;2.80;;
79373;SDS011;68844;53.128;17.958;2023-09-12T11:43:00;4.20;;;2.90;;
79373;SDS011;68844;53.128;17.958;2023-09-12T11:45:27;3.80;;;3.10;;
79373;SDS011;68844;53.128;17.958;2023-09-12T11:50:28;4.00;;;3.70;;
79373;SDS011;68844;53.128;17.958;2023-09-12T11:53:08;4.20;;;3.70;;
79373;SDS011;68844;53.128;17.958;2023-09-12T11:55:45;5.80;;;3.40;;
79373;SDS011;68844;53.128;17.958;2023-09-12T11:58:15;5.20;;;3.70;;
79373;SDS011;68844;53.128;17.958;2023-09-12T12:00:45;3.60;;;3.30;;
79373;SDS011;68844;53.128;17.958;2023-09-12T12:03:17;4.30;;;3.30;;
79373;SDS011;68844;53.128;17.958;2023-09-12T12:05:46;3.90;;;3.50;;
79373;SDS011;68844;53.128;17.958;2023-09-12T12:08:14;4.20;;;3.10;;
79373;SDS011;68844;53.128;17.958;2023-09-12T12:10:42;4.00;;;3.60;;
79373;SDS011;68844;53.128;17.958;2023-09-12T12:13:12;5.30;;;3.60;;
79373;SDS011;68844;53.128;17.958;2023-09-12T12:15:43;4.80;;;3.10;;
79373;SDS011;68844;53.128;17.958;2023-09-12T12:18:10;4.40;;;3.80;;
79373;SDS011;68844;53.128;17.958;2023-09-12T12:20:37;4.40;;;3.40;;
79373;SDS011;68844;53.128;17.958;2023-09-12T12:23:04;4.70;;;2.90;;
79373;SDS011;68844;53.128;17.958;2023-09-12T12:25:34;4.20;;;3.00;;
79373;SDS011;68844;53.128;17.958;2023-09-12T12:28:02;6.20;;;3.30;;
79373;SDS011;68844;53.128;17.958;2023-09-12T12:30:35;4.10;;;3.20;;
79373;SDS011;68844;53.128;17.958;2023-09-12T12:35:33;3.90;;;3.60;;
79373;SDS011;68844;53.128;17.958;2023-09-12T12:38:02;3.60;;;3.10;;
79373;SDS011;68844;53.128;17.958;2023-09-12T12:40:29;5.60;;;3.40;;
79373;SDS011;68844;53.128;17.958;2023-09-12T12:42:56;5.50;;;3.90;;
79373;SDS011;68844;53.128;17.958;2023-09-12T12:45:23;7.80;;;3.90;;
79373;SDS011;68844;53.128;17.958;2023-09-12T12:47:51;3.80;;;3.20;;
79373;SDS011;68844;53.128;17.958;2023-09-12T12:50:18;3.90;;;3.60;;
79373;SDS011;68844;53.128;17.958;2023-09-12T12:52:47;5.00;;;3.40;;
79373;SDS011;68844;53.128;17.958;2023-09-12T12:55:15;4.40;;;3.40;;
79373;SDS011;68844;53.128;17.958;2023-09-12T12:57:47;5.20;;;3.60;;
79373;SDS011;68844;53.128;17.958;2023-09-12T13:00:15;4.00;;;3.60;;
79373;SDS011;68844;53.128;17.958;2023-09-12T13:02:43;4.00;;;3.60;;
79373;SDS011;68844;53.128;17.958;2023-09-12T13:05:26;6.00;;;3.80;;
79373;SDS011;68844;53.128;17.958;2023-09-12T13:07:54;7.70;;;4.00;;
79373;SDS011;68844;53.128;17.958;2023-09-12T13:10:21;4.70;;;3.50;;
79373;SDS011;68844;53.128;17.958;2023-09-12T13:12:49;3.90;;;3.50;;
79373;SDS011;68844;53.128;17.958;2023-09-12T13:15:16;2.70;;;2.20;;
79373;SDS011;68844;53.128;17.958;2023-09-12T13:17:44;5.80;;;4.30;;
79373;SDS011;68844;53.128;17.958;2023-09-12T13:20:12;3.20;;;2.70;;
79373;SDS011;68844;53.128;17.958;2023-09-12T13:22:38;3.50;;;3.20;;
79373;SDS011;68844;53.128;17.958;2023-09-12T13:25:05;6.20;;;3.90;;
79373;SDS011;68844;53.128;17.958;2023-09-12T13:27:34;7.00;;;3.90;;
79373;SDS011;68844;53.128;17.958;2023-09-12T13:30:00;5.80;;;3.90;;
79373;SDS011;68844;53.128;17.958;2023-09-12T13:32:27;4.80;;;3.40;;
79373;SDS011;68844;53.128;17.958;2023-09-12T13:34:53;6.70;;;3.90;;
79373;SDS011;68844;53.128;17.958;2023-09-12T13:37:20;4.30;;;3.80;;
79373;SDS011;68844;53.128;17.958;2023-09-12T13:39:47;6.00;;;3.80;;
79373;SDS011;68844;53.128;17.958;2023-09-12T13:42:16;6.20;;;4.40;;
79373;SDS011;68844;53.128;17.958;2023-09-12T13:44:47;4.80;;;3.90;;
79373;SDS011;68844;53.128;17.958;2023-09-12T13:47:14;5.50;;;3.40;;
79373;SDS011;68844;53.128;17.958;2023-09-12T13:49:48;3.80;;;3.30;;
79373;SDS011;68844;53.128;17.958;2023-09-12T13:52:19;3.70;;;3.30;;
79373;SDS011;68844;53.128;17.958;2023-09-12T13:54:46;7.10;;;4.10;;
79373;SDS011;68844;53.128;17.958;2023-09-12T13:57:13;3.90;;;3.60;;
79373;SDS011;68844;53.128;17.958;2023-09-12T13:59:42;3.80;;;3.40;;
79373;SDS011;68844;53.128;17.958;2023-09-12T14:02:09;4.90;;;3.40;;
79373;SDS011;68844;53.128;17.958;2023-09-12T14:04:36;4.80;;;3.90;;
79373;SDS011;68844;53.128;17.958;2023-09-12T14:07:03;4.30;;;3.80;;
79373;SDS011;68844;53.128;17.958;2023-09-12T14:09:30;4.20;;;3.60;;
79373;SDS011;68844;53.128;17.958;2023-09-12T14:11:56;4.30;;;3.90;;
79373;SDS011;68844;53.128;17.958;2023-09-12T14:14:23;4.00;;;3.70;;
79373;SDS011;68844;53.128;17.958;2023-09-12T14:16:49;5.10;;;3.80;;
79373;SDS011;68844;53.128;17.958;2023-09-12T14:19:16;6.20;;;3.80;;
79373;SDS011;68844;53.128;17.958;2023-09-12T14:21:43;3.90;;;3.00;;
79373;SDS011;68844;53.128;17.958;2023-09-12T14:24:12;3.80;;;3.50;;
79373;SDS011;68844;53.128;17.958;2023-09-12T14:26:39;4.90;;;3.90;;
79373;SDS011;68844;53.128;17.958;2023-09-12T14:29:05;7.40;;;4.00;;
79373;SDS011;68844;53.128;17.958;2023-09-12T14:31:32;7.90;;;3.60;;
79373;SDS011;68844;53.128;17.958;2023-09-12T14:33:59;4.10;;;3.50;;
79373;SDS011;68844;53.128;17.958;2023-09-12T14:36:25;4.20;;;3.40;;
79373;SDS011;68844;53.128;17.958;2023-09-12T14:38:52;4.70;;;3.70;;
79373;SDS011;68844;53.128;17.958;2023-09-12T14:41:19;4.50;;;3.20;;
79373;SDS011;68844;53.128;17.958;2023-09-12T14:43:45;3.70;;;3.30;;
79373;SDS011;68844;53.128;17.958;2023-09-12T14:46:12;5.40;;;3.80;;
79373;SDS011;68844;53.128;17.958;2023-09-12T14:48:38;7.30;;;4.20;;
79373;SDS011;68844;53.128;17.958;2023-09-12T14:51:05;3.80;;;3.40;;
79373;SDS011;68844;53.128;17.958;2023-09-12T14:53:31;5.70;;;4.20;;
79373;SDS011;68844;53.128;17.958;2023-09-12T14:55:58;6.20;;;3.90;;
79373;SDS011;68844;53.128;17.958;2023-09-12T14:58:25;5.00;;;3.60;;
79373;SDS011;68844;53.128;17.958;2023-09-12T15:00:51;4.10;;;3.70;;
79373;SDS011;68844;53.128;17.958;2023-09-12T15:03:18;4.80;;;3.80;;